Time;durP1;ratioP1;P1;durP2;ratioP2;P2;SDS_P1;SDS_P2;PMS_P1;PMS_P2;Temp;Humidity;BMP_temperature;BMP_pressure;BME280_temperature;BME280_humidity;BME280_pressure;Samples;Min_cycle;Max_cycle;Signal;HPM_P1;HPM_P2
2023/05/25 00:02:24;;;;;;;18.27;10.45;;;;;;;8.27;100.00;101561.75;6237969;28;20148;-92
2023/05/25 00:05:27;;;;;;;19.88;11.68;;;;;;;8.22;100.00;101561.16;6235279;28;20045;-92
2023/05/25 00:08:29;;;;;;;19.83;10.82;;;;;;;8.22;100.00;101562.91;6237956;28;20049;-92
2023/05/25 00:11:31;;;;;;;22.92;11.55;;;;;;;8.17;100.00;101558.00;6235731;28;20362;-91
2023/05/25 00:14:33;;;;;;;24.05;11.38;;;;;;;8.15;100.00;101562.44;6233697;28;20044;-92
2023/05/25 00:17:36;;;;;;;21.23;10.77;;;;;;;8.14;100.00;101561.56;6234836;28;20042;-91
2023/05/25 00:20:38;;;;;;;22.40;10.90;;;;;;;8.18;100.00;101565.66;6231711;28;20042;-91
2023/05/25 00:23:41;;;;;;;21.33;10.55;;;;;;;8.18;100.00;101567.41;6230482;28;20038;-91
2023/05/25 00:26:42;;;;;;;25.73;11.63;;;;;;;8.18;100.00;101563.09;6229822;28;20081;-91
2023/05/25 00:29:45;;;;;;;23.70;12.95;;;;;;;8.18;100.00;101570.81;6232126;28;20037;-91
2023/05/25 00:32:48;;;;;;;21.92;11.25;;;;;;;8.17;100.00;101564.03;6232524;28;20048;-91
2023/05/25 00:35:51;;;;;;;21.75;11.75;;;;;;;8.13;100.00;101559.91;6238546;28;20044;-91
2023/05/25 00:38:53;;;;;;;21.90;10.85;;;;;;;8.04;100.00;101562.97;6231913;28;20494;-91
2023/05/25 00:41:58;;;;;;;23.15;11.23;;;;;;;8.00;100.00;101566.63;6208315;28;20049;-91
2023/05/25 00:45:00;;;;;;;21.50;10.63;;;;;;;7.97;100.00;101567.63;6231806;28;20050;-91
2023/05/25 00:48:03;;;;;;;17.35;10.27;;;;;;;7.95;100.00;101566.03;6239298;28;20052;-91
2023/05/25 00:51:06;;;;;;;21.67;10.48;;;;;;;7.90;100.00;101561.13;6237922;28;20041;-92
2023/05/25 00:54:08;;;;;;;21.85;11.27;;;;;;;7.95;100.00;101568.63;6238292;28;20464;-92
2023/05/25 00:57:13;;;;;;;25.75;11.38;;;;;;;7.99;100.00;101555.47;6240817;28;20366;-91
2023/05/25 01:00:16;;;;;;;24.45;11.38;;;;;;;7.99;100.00;101563.19;6234945;28;20052;-92
2023/05/25 01:03:21;;;;;;;22.58;12.05;;;;;;;7.96;100.00;101560.78;6235932;28;20574;-92
2023/05/25 01:06:30;;;;;;;21.85;11.77;;;;;;;7.93;100.00;101563.53;6229240;28;20278;-92
2023/05/25 01:09:37;;;;;;;23.77;11.43;;;;;;;7.96;100.00;101562.53;6232897;28;20030;-92
2023/05/25 01:12:41;;;;;;;26.23;11.95;;;;;;;7.98;100.00;101569.28;6236211;28;20062;-92
2023/05/25 01:15:45;;;;;;;21.35;10.95;;;;;;;7.97;100.00;101572.78;6233226;28;20042;-92
2023/05/25 01:18:47;;;;;;;20.98;10.93;;;;;;;7.91;100.00;101569.69;6233910;28;20049;-92
2023/05/25 01:21:49;;;;;;;26.63;10.50;;;;;;;7.91;100.00;101567.94;6235315;28;20504;-92
2023/05/25 01:25:03;;;;;;;25.00;11.23;;;;;;;7.91;100.00;101564.53;6236952;28;20041;-92
2023/05/25 01:28:10;;;;;;;22.80;12.65;;;;;;;7.89;100.00;101567.16;6228933;28;20056;-92
2023/05/25 01:31:15;;;;;;;25.35;11.70;;;;;;;7.85;100.00;101568.25;6236614;28;20399;-92
2023/05/25 01:34:18;;;;;;;20.50;11.10;;;;;;;7.83;100.00;101566.66;6249663;28;20503;-92
2023/05/25 01:37:22;;;;;;;20.38;10.70;;;;;;;7.81;100.00;101569.31;6246396;28;20422;-93
2023/05/25 01:40:25;;;;;;;25.83;11.20;;;;;;;7.81;100.00;101563.31;6243919;28;20049;-92
2023/05/25 01:43:27;;;;;;;19.70;10.80;;;;;;;7.82;100.00;101565.81;6226201;28;20183;-92
2023/05/25 01:46:37;;;;;;;21.40;11.55;;;;;;;7.84;100.00;101565.75;6232577;28;20057;-92
2023/05/25 01:49:45;;;;;;;23.97;11.60;;;;;;;7.81;100.00;101560.75;6234855;28;20479;-93
2023/05/25 01:52:53;;;;;;;19.65;9.95;;;;;;;7.80;100.00;101561.63;6236976;28;20116;-93
2023/05/25 01:56:02;;;;;;;19.35;10.02;;;;;;;7.75;100.00;101567.88;6210401;28;20169;-92
2023/05/25 01:59:10;;;;;;;20.98;11.07;;;;;;;7.66;100.00;101562.34;6248932;28;20380;-92
2023/05/25 02:02:15;;;;;;;20.63;9.68;;;;;;;7.59;100.00;101553.25;6230873;28;20037;-92
2023/05/25 02:05:19;;;;;;;17.63;9.95;;;;;;;7.49;100.00;101553.69;6237087;28;20052;-92
2023/05/25 02:08:21;;;;;;;18.85;9.77;;;;;;;7.42;100.00;101554.09;6216438;28;20060;-92
2023/05/25 02:11:23;;;;;;;21.48;10.30;;;;;;;7.39;100.00;101554.25;6233021;28;20041;-92
2023/05/25 02:14:25;;;;;;;21.05;11.20;;;;;;;7.48;100.00;101559.78;6218004;28;20088;-92
2023/05/25 02:17:28;;;;;;;19.38;10.60;;;;;;;7.80;100.00;101569.38;6233360;28;20045;-92
2023/05/25 02:20:31;;;;;;;21.58;11.40;;;;;;;7.92;100.00;101558.44;6239908;28;20704;-92
2023/05/25 02:23:33;;;;;;;21.80;11.77;;;;;;;7.88;100.00;101564.69;6231099;28;20048;-92
2023/05/25 02:26:36;;;;;;;22.25;11.18;;;;;;;7.74;100.00;101549.91;6216201;28;20056;-93
2023/05/25 02:29:38;;;;;;;18.88;10.02;;;;;;;7.65;100.00;101551.22;6234606;28;20403;-92
2023/05/25 02:32:40;;;;;;;16.67;10.10;;;;;;;7.64;100.00;101557.25;6223965;28;20081;-93
2023/05/25 02:35:46;;;;;;;23.73;11.63;;;;;;;7.81;100.00;101566.72;6224308;28;20072;-93
2023/05/25 02:38:51;;;;;;;20.25;10.45;;;;;;;8.04;100.00;101572.44;6235363;28;20578;-92
2023/05/25 02:41:53;;;;;;;22.98;11.40;;;;;;;8.17;100.00;101570.91;6233288;28;20086;-92
2023/05/25 02:44:56;;;;;;;22.42;11.00;;;;;;;8.16;100.00;101566.66;6243909;28;20038;-92
2023/05/25 02:47:58;;;;;;;21.23;11.10;;;;;;;8.25;100.00;101565.34;6236057;28;20041;-92
2023/05/25 02:51:02;;;;;;;22.40;11.73;;;;;;;8.31;100.00;101567.59;6235012;28;20049;-92
2023/05/25 02:54:04;;;;;;;23.48;11.82;;;;;;;8.38;100.00;101574.13;6230963;28;20048;-92
2023/05/25 02:57:07;;;;;;;24.13;12.00;;;;;;;8.43;100.00;101568.75;6232837;28;20042;-92
2023/05/25 03:00:11;;;;;;;22.55;12.20;;;;;;;8.51;100.00;101572.56;6246958;28;20207;-92
2023/05/25 03:03:17;;;;;;;25.10;12.15;;;;;;;8.50;100.00;101578.66;6235918;28;20052;-92
2023/05/25 03:06:25;;;;;;;21.85;11.45;;;;;;;8.58;100.00;101581.66;6227028;28;20443;-92
2023/05/25 03:09:35;;;;;;;21.20;11.63;;;;;;;8.65;100.00;101582.16;6229374;28;20629;-92
2023/05/25 03:12:38;;;;;;;23.05;12.27;;;;;;;8.62;100.00;101587.47;6240461;28;20041;-92
2023/05/25 03:15:41;;;;;;;23.13;11.05;;;;;;;8.61;100.00;101585.81;6217041;28;20527;-92
2023/05/25 03:18:44;;;;;;;23.08;10.98;;;;;;;8.60;100.00;101579.00;6238084;28;20037;-92
2023/05/25 03:21:46;;;;;;;19.48;10.80;;;;;;;8.60;100.00;101595.31;6236533;28;20479;-92
2023/05/25 03:24:49;;;;;;;23.92;11.48;;;;;;;8.63;100.00;101591.72;6226835;28;20050;-92
2023/05/25 03:27:52;;;;;;;19.40;10.77;;;;;;;8.65;100.00;101584.75;6232349;28;20423;-92
2023/05/25 03:30:56;;;;;;;21.73;10.35;;;;;;;8.64;100.00;101588.22;6238793;28;20503;-92
2023/05/25 03:33:58;;;;;;;18.08;10.18;;;;;;;8.66;100.00;101586.41;6237294;28;20045;-93
2023/05/25 03:37:01;;;;;;;21.88;10.48;;;;;;;8.69;100.00;101586.22;6233302;28;20393;-92
2023/05/25 03:40:03;;;;;;;17.48;9.38;;;;;;;8.71;100.00;101597.31;6219770;28;20127;-92
2023/05/25 03:43:07;;;;;;;23.55;10.93;;;;;;;8.75;100.00;101598.81;6239711;28;20057;-92
2023/05/25 03:46:10;;;;;;;16.98;10.93;;;;;;;8.83;100.00;101598.41;6235866;28;20086;-91
2023/05/25 03:49:12;;;;;;;23.00;10.75;;;;;;;8.83;100.00;101600.97;6220174;28;20045;-91
2023/05/25 03:52:15;;;;;;;21.92;9.88;;;;;;;8.89;100.00;101602.38;6236811;28;20041;-91
2023/05/25 03:55:18;;;;;;;21.90;9.85;;;;;;;8.89;100.00;101599.81;6234321;28;20547;-92
2023/05/25 03:58:20;;;;;;;18.50;9.85;;;;;;;8.94;100.00;101608.13;6235592;28;20045;-92
2023/05/25 04:01:25;;;;;;;17.33;10.18;;;;;;;8.99;100.00;101608.72;6224646;28;20052;-92
2023/05/25 04:04:33;;;;;;;21.13;10.50;;;;;;;9.07;100.00;101616.88;6237646;28;20057;-92
2023/05/25 04:07:36;;;;;;;19.50;9.68;;;;;;;9.15;100.00;101612.13;6240168;28;20449;-92
2023/05/25 04:10:38;;;;;;;19.88;9.93;;;;;;;9.15;100.00;101614.72;6230042;28;20048;-92
2023/05/25 04:13:40;;;;;;;18.77;9.77;;;;;;;9.12;100.00;101607.13;6233432;28;20044;-92
2023/05/25 04:16:44;;;;;;;17.85;9.80;;;;;;;9.17;100.00;101609.47;6235533;28;20570;-92
2023/05/25 04:19:48;;;;;;;16.83;9.77;;;;;;;9.23;100.00;101609.13;6236703;28;20057;-92
2023/05/25 04:22:50;;;;;;;19.30;9.85;;;;;;;9.27;100.00;101611.44;6219519;28;20124;-92
2023/05/25 04:25:53;;;;;;;17.88;9.20;;;;;;;9.35;100.00;101611.00;6230813;28;20038;-92
2023/05/25 04:28:57;;;;;;;18.55;10.00;;;;;;;9.41;100.00;101609.81;6214462;28;20044;-92
2023/05/25 04:32:08;;;;;;;20.75;10.52;;;;;;;9.44;100.00;101617.41;6226697;28;20048;-92
2023/05/25 04:35:47;;;;;;;18.40;9.30;;;;;;;9.47;100.00;101622.41;6235132;28;20041;-92
2023/05/25 04:38:53;;;;;;;16.45;9.80;;;;;;;9.53;100.00;101624.63;6234152;28;20050;-92
2023/05/25 04:41:57;;;;;;;20.60;9.95;;;;;;;9.57;100.00;101625.31;6242402;28;20132;-92
2023/05/25 04:44:59;;;;;;;17.40;10.32;;;;;;;9.63;100.00;101625.78;6221365;28;20044;-92
2023/05/25 04:48:02;;;;;;;22.30;9.38;;;;;;;9.65;100.00;101634.28;6234836;28;20050;-92
2023/05/25 04:51:05;;;;;;;22.75;9.80;;;;;;;9.66;100.00;101641.13;6234436;28;20076;-92
2023/05/25 04:54:08;;;;;;;14.15;8.70;;;;;;;9.76;100.00;101648.34;6235242;28;20468;-92
2023/05/25 04:57:10;;;;;;;14.40;8.90;;;;;;;9.79;100.00;101641.25;6238153;28;20200;-92
2023/05/25 05:00:14;;;;;;;19.13;9.63;;;;;;;9.85;100.00;101629.72;6245624;28;20067;-92
2023/05/25 05:03:17;;;;;;;18.00;9.40;;;;;;;9.91;100.00;101630.19;6234327;28;20038;-92
2023/05/25 05:06:20;;;;;;;16.33;9.63;;;;;;;10.04;100.00;101629.47;6236883;28;20044;-92
2023/05/25 05:09:23;;;;;;;19.20;9.68;;;;;;;10.12;100.00;101635.84;6220301;28;20140;-92
2023/05/25 05:12:27;;;;;;;19.23;9.75;;;;;;;10.22;100.00;101635.31;6220501;28;20049;-92
2023/05/25 05:15:32;;;;;;;18.50;9.85;;;;;;;10.39;100.00;101639.53;6237827;28;20719;-92
2023/05/25 05:18:34;;;;;;;19.48;9.90;;;;;;;10.49;100.00;101645.81;6233012;28;20455;-92
2023/05/25 05:21:36;;;;;;;22.33;10.60;;;;;;;10.51;100.00;101642.19;6229834;28;20037;-92
2023/05/25 05:24:41;;;;;;;18.55;9.63;;;;;;;10.59;100.00;101641.72;6223035;28;20499;-91
2023/05/25 05:27:45;;;;;;;17.05;9.15;;;;;;;10.59;100.00;101646.91;6245056;28;20040;-92
2023/05/25 05:30:57;;;;;;;19.33;10.63;;;;;;;10.56;100.00;101650.50;6233972;28;20049;-91
2023/05/25 05:33:59;;;;;;;20.08;9.68;;;;;;;10.59;100.00;101657.25;6245454;28;20041;-91
2023/05/25 05:37:02;;;;;;;20.52;11.05;;;;;;;10.68;100.00;101655.84;6241665;28;20583;-92
2023/05/25 05:40:04;;;;;;;19.02;9.77;;;;;;;10.67;100.00;101669.72;6251115;28;20087;-92
2023/05/25 05:43:14;;;;;;;22.05;10.55;;;;;;;10.72;100.00;101673.69;6242347;28;20049;-91
2023/05/25 05:46:16;;;;;;;22.52;11.18;;;;;;;10.73;100.00;101665.03;6235489;28;20033;-91
2023/05/25 05:49:18;;;;;;;23.38;11.75;;;;;;;10.68;100.00;101667.06;6242286;28;20049;-90
2023/05/25 05:52:27;;;;;;;26.35;12.60;;;;;;;10.75;100.00;101677.84;6236610;28;20480;-91
2023/05/25 05:55:29;;;;;;;24.67;13.48;;;;;;;10.87;100.00;101677.09;6227423;28;20431;-91
2023/05/25 05:58:31;;;;;;;23.20;13.27;;;;;;;10.88;100.00;101689.16;6222492;28;20119;-91
2023/05/25 06:01:35;;;;;;;25.27;13.68;;;;;;;10.84;100.00;101697.19;6238651;28;20045;-91
2023/05/25 06:04:37;;;;;;;21.45;12.70;;;;;;;10.78;100.00;101699.25;6219587;28;20735;-91
2023/05/25 06:07:41;;;;;;;23.05;12.48;;;;;;;10.71;100.00;101697.94;6236535;28;20625;-91
2023/05/25 06:10:44;;;;;;;24.45;12.40;;;;;;;10.76;100.00;101702.84;6239844;28;20045;-91
2023/05/25 06:13:45;;;;;;;19.42;11.63;;;;;;;10.75;100.00;101714.13;6236965;28;20515;-90
2023/05/25 06:16:49;;;;;;;21.38;11.10;;;;;;;10.73;100.00;101713.38;6242519;28;20550;-91
2023/05/25 06:19:52;;;;;;;20.30;10.65;;;;;;;10.72;100.00;101719.47;6234861;28;20529;-91
2023/05/25 06:22:54;;;;;;;19.05;10.95;;;;;;;10.70;100.00;101716.16;6240514;28;20195;-91
2023/05/25 06:25:55;;;;;;;18.52;10.75;;;;;;;10.73;100.00;101713.38;6238866;28;20052;-91
2023/05/25 06:28:58;;;;;;;18.65;10.98;;;;;;;10.81;100.00;101718.94;6243039;28;20046;-92
2023/05/25 06:32:00;;;;;;;19.73;10.45;;;;;;;10.86;100.00;101722.06;6241175;28;20534;-91
2023/05/25 06:35:03;;;;;;;21.08;10.45;;;;;;;10.88;100.00;101720.22;6235977;28;20132;-91
2023/05/25 06:38:06;;;;;;;16.52;9.98;;;;;;;10.92;100.00;101732.06;6245640;28;20049;-91
2023/05/25 06:41:11;;;;;;;21.55;10.52;;;;;;;11.01;100.00;101732.44;6240895;28;20048;-91
2023/05/25 06:44:14;;;;;;;18.83;11.43;;;;;;;11.09;100.00;101730.19;6215836;28;20037;-91
2023/05/25 06:47:20;;;;;;;22.85;11.55;;;;;;;11.11;100.00;101736.94;6232453;28;20556;-91
2023/05/25 06:50:22;;;;;;;18.67;12.77;;;;;;;11.12;100.00;101727.41;6233801;28;20045;-91
2023/05/25 06:53:24;;;;;;;19.27;11.93;;;;;;;11.19;100.00;101733.88;6235003;28;20034;-92
2023/05/25 06:56:26;;;;;;;23.52;12.00;;;;;;;11.24;100.00;101741.38;6232385;28;20404;-92
2023/05/25 06:59:28;;;;;;;19.23;12.88;;;;;;;11.40;100.00;101744.66;6235247;28;20148;-91
2023/05/25 07:02:31;;;;;;;24.55;13.05;;;;;;;11.55;100.00;101742.84;6236086;28;20096;-92
2023/05/25 07:05:33;;;;;;;20.67;12.25;;;;;;;11.74;100.00;101742.53;6245204;28;20587;-91
2023/05/25 07:08:36;;;;;;;18.98;12.00;;;;;;;11.87;100.00;101735.63;6238175;28;20404;-92
2023/05/25 07:11:38;;;;;;;22.30;11.98;;;;;;;11.98;100.00;101743.56;6244979;28;20411;-92
2023/05/25 07:14:40;;;;;;;21.52;11.82;;;;;;;12.05;100.00;101750.00;6227214;28;20387;-91
2023/05/25 07:17:42;;;;;;;18.55;11.40;;;;;;;12.20;100.00;101748.19;6238934;28;20041;-92
2023/05/25 07:20:44;;;;;;;19.00;11.77;;;;;;;12.42;100.00;101750.19;6241955;28;20067;-92
2023/05/25 07:23:46;;;;;;;16.88;10.65;;;;;;;12.62;100.00;101745.38;6236424;28;20048;-92
2023/05/25 07:26:49;;;;;;;16.25;10.95;;;;;;;12.86;100.00;101750.66;6235173;28;20045;-92
2023/05/25 07:29:51;;;;;;;17.48;9.55;;;;;;;13.01;100.00;101748.78;6238098;28;20051;-92
2023/05/25 07:32:53;;;;;;;16.95;9.32;;;;;;;13.11;100.00;101745.41;6241111;28;20136;-92
2023/05/25 07:35:55;;;;;;;17.27;8.93;;;;;;;13.21;100.00;101743.00;6229345;28;20064;-93
2023/05/25 07:39:00;;;;;;;13.18;8.27;;;;;;;13.34;100.00;101741.25;6230963;28;20067;-93
2023/05/25 07:42:02;;;;;;;12.45;7.78;;;;;;;13.48;100.00;101750.66;6241376;28;20044;-93
2023/05/25 07:45:05;;;;;;;14.85;8.13;;;;;;;13.64;100.00;101752.13;6235214;28;20045;-93
2023/05/25 07:48:08;;;;;;;20.23;8.73;;;;;;;13.79;100.00;101746.69;6241331;28;20042;-93
2023/05/25 07:51:12;;;;;;;13.90;7.05;;;;;;;13.96;100.00;101742.84;6243834;28;20049;-92
2023/05/25 07:54:15;;;;;;;17.33;7.30;;;;;;;14.12;100.00;101747.72;6233328;28;20048;-93
2023/05/25 07:57:17;;;;;;;15.57;8.40;;;;;;;14.14;100.00;101750.22;6224258;28;20053;-93
2023/05/25 08:00:20;;;;;;;14.50;7.38;;;;;;;14.14;100.00;101751.06;6238270;28;20088;-93
2023/05/25 08:03:21;;;;;;;16.48;7.43;;;;;;;14.12;100.00;101750.34;6232640;28;20042;-92
2023/05/25 08:06:33;;;;;;;18.65;8.13;;;;;;;14.12;100.00;101752.94;6227692;28;20056;-93
2023/05/25 08:09:35;;;;;;;13.05;7.38;;;;;;;14.34;100.00;101752.16;6229321;28;20124;-93
2023/05/25 08:12:40;;;;;;;15.02;7.55;;;;;;;14.33;100.00;101757.47;6223889;28;20049;-93
2023/05/25 08:15:50;;;;;;;14.95;7.05;;;;;;;14.34;100.00;101756.56;6226383;28;20045;-93
2023/05/25 08:18:53;;;;;;;13.43;7.10;;;;;;;14.26;100.00;101757.13;6224625;28;20136;-93
2023/05/25 08:21:56;;;;;;;16.40;7.88;;;;;;;14.16;100.00;101763.94;6226497;28;20049;-92
2023/05/25 08:24:59;;;;;;;14.10;7.45;;;;;;;14.04;100.00;101757.06;6225208;28;20037;-93
2023/05/25 08:28:01;;;;;;;13.85;8.25;;;;;;;13.96;100.00;101758.47;6230847;28;20060;-93
2023/05/25 08:31:03;;;;;;;15.98;7.70;;;;;;;14.01;100.00;101765.91;6224962;28;20125;-92
2023/05/25 08:34:06;;;;;;;15.48;8.57;;;;;;;14.00;100.00;101765.06;6242740;28;20053;-92
2023/05/25 08:37:08;;;;;;;19.02;8.88;;;;;;;14.10;100.00;101769.63;6231223;28;20392;-93
2023/05/25 08:40:15;;;;;;;16.95;8.50;;;;;;;13.99;100.00;101771.25;6219661;28;20133;-93
2023/05/25 08:43:17;;;;;;;19.17;8.13;;;;;;;13.91;100.00;101778.78;6225421;28;20454;-92
2023/05/25 08:46:35;;;;;;;16.73;9.02;;;;;;;13.83;100.00;101773.28;6231506;28;20046;-92
2023/05/25 08:49:39;;;;;;;15.35;8.80;;;;;;;13.75;100.00;101770.44;6234279;28;20068;-93
2023/05/25 08:52:46;;;;;;;18.75;9.27;;;;;;;13.71;100.00;101774.19;6232746;28;20041;-92
2023/05/25 08:55:50;;;;;;;13.93;8.15;;;;;;;13.78;100.00;101772.78;6227987;28;20052;-92
2023/05/25 08:59:08;;;;;;;14.35;8.65;;;;;;;13.93;100.00;101771.69;6234197;28;20045;-92
2023/05/25 09:02:20;;;;;;;15.38;8.23;;;;;;;14.13;100.00;101779.78;6230516;28;20034;-92
2023/05/25 09:05:22;;;;;;;16.15;8.73;;;;;;;14.38;100.00;101784.88;6229752;28;20634;-93
2023/05/25 09:08:26;;;;;;;15.23;8.43;;;;;;;14.63;100.00;101783.03;6232576;28;20046;-93
2023/05/25 09:11:28;;;;;;;15.32;8.10;;;;;;;14.67;100.00;101773.22;6227679;28;20041;-92
2023/05/25 09:14:46;;;;;;;13.75;7.88;;;;;;;14.68;100.00;101777.47;6229116;28;20061;-93
2023/05/25 09:17:52;;;;;;;14.27;8.00;;;;;;;14.69;100.00;101779.97;6231563;28;20044;-93
2023/05/25 09:20:58;;;;;;;15.57;8.40;;;;;;;14.81;100.00;101786.84;6238961;28;20511;-92
2023/05/25 09:24:00;;;;;;;15.35;8.70;;;;;;;14.84;100.00;101785.78;6232148;28;21464;-93
2023/05/25 09:27:03;;;;;;;16.65;8.80;;;;;;;14.84;100.00;101789.22;6234310;28;20054;-93
2023/05/25 09:30:07;;;;;;;17.42;8.63;;;;;;;14.79;100.00;101780.91;6245290;28;20629;-93
2023/05/25 09:33:16;;;;;;;17.05;8.82;;;;;;;14.90;100.00;101789.69;6241755;28;20060;-93
2023/05/25 09:36:20;;;;;;;17.05;7.70;;;;;;;14.90;100.00;101790.50;6235564;28;20041;-91
2023/05/25 09:39:24;;;;;;;10.48;6.45;;;;;;;14.76;100.00;101783.75;6239105;28;20044;-92
2023/05/25 09:42:26;;;;;;;13.10;7.40;;;;;;;14.76;100.00;101790.75;6236799;28;20037;-92
2023/05/25 09:45:29;;;;;;;14.15;7.00;;;;;;;14.86;100.00;101794.31;6226979;28;20079;-92
2023/05/25 09:48:31;;;;;;;15.32;7.07;;;;;;;14.93;100.00;101792.91;6233548;28;20093;-91
2023/05/25 09:51:35;;;;;;;13.75;7.57;;;;;;;15.17;100.00;101797.97;6229398;28;20038;-93
2023/05/25 09:54:38;;;;;;;14.20;7.03;;;;;;;15.49;100.00;101794.59;6240061;28;20738;-92
2023/05/25 09:57:41;;;;;;;12.82;6.70;;;;;;;15.77;100.00;101795.84;6238296;28;20037;-93
2023/05/25 10:00:44;;;;;;;13.50;7.60;;;;;;;16.07;100.00;101808.22;6245884;28;20041;-93
2023/05/25 10:03:47;;;;;;;13.90;7.95;;;;;;;16.31;100.00;101801.94;6235381;28;20045;-93
2023/05/25 10:07:07;;;;;;;15.10;7.30;;;;;;;16.32;100.00;101809.66;6215080;28;20052;-93
2023/05/25 10:10:15;;;;;;;9.77;6.72;;;;;;;16.29;100.00;101806.44;6254712;28;20055;-94
2023/05/25 10:13:26;;;;;;;13.13;7.28;;;;;;;16.30;100.00;101806.34;6235588;28;20152;-95
2023/05/25 10:16:31;;;;;;;11.50;6.80;;;;;;;16.24;100.00;101811.22;6240270;28;20135;-93
2023/05/25 10:19:52;;;;;;;16.60;7.88;;;;;;;16.12;100.00;101805.22;6235608;28;20120;-92
2023/05/25 10:23:12;;;;;;;11.55;6.03;;;;;;;15.94;100.00;101813.59;6238719;28;20049;-93
2023/05/25 10:26:22;;;;;;;13.90;7.97;;;;;;;15.96;100.00;101816.09;6240917;28;20050;-93
2023/05/25 10:29:26;;;;;;;13.05;7.25;;;;;;;16.06;100.00;101806.56;6239560;28;20064;-93
2023/05/25 10:32:31;;;;;;;10.88;7.07;;;;;;;16.34;100.00;101810.31;6243538;28;20026;-94
2023/05/25 10:35:34;;;;;;;12.45;6.60;;;;;;;16.53;100.00;101817.47;6248631;28;20048;-93
2023/05/25 10:38:57;;;;;;;9.93;6.70;;;;;;;16.65;100.00;101801.72;6235491;28;20041;-93
2023/05/25 10:42:00;;;;;;;18.05;7.95;;;;;;;16.82;100.00;101808.16;6242066;28;20045;-91
2023/05/25 10:45:05;;;;;;;12.68;7.45;;;;;;;17.14;100.00;101810.63;6238042;28;20231;-92
2023/05/25 10:48:08;;;;;;;10.55;7.20;;;;;;;17.23;100.00;101804.59;6241353;28;20042;-91
2023/05/25 10:51:13;;;;;;;12.02;6.72;;;;;;;17.41;100.00;101799.56;6236847;28;20045;-92
2023/05/25 10:54:14;;;;;;;12.13;7.20;;;;;;;17.20;100.00;101808.31;6238101;28;20056;-91
2023/05/25 10:57:19;;;;;;;13.63;6.90;;;;;;;16.80;100.00;101800.47;6232625;28;20609;-91
2023/05/25 11:00:21;;;;;;;10.95;7.07;;;;;;;16.61;100.00;101806.38;6232572;28;20038;-92
2023/05/25 11:03:43;;;;;;;10.98;6.22;;;;;;;16.33;100.00;101807.88;6234146;28;20160;-92
2023/05/25 11:06:49;;;;;;;9.82;6.65;;;;;;;16.21;100.00;101799.25;6236338;28;20407;-96
2023/05/25 11:09:57;;;;;;;9.98;5.82;;;;;;;16.34;100.00;101801.66;6236776;28;20060;-96
2023/05/25 11:13:23;;;;;;;11.43;5.28;;;;;;;16.58;100.00;101807.47;6233452;28;20053;-95
2023/05/25 11:16:34;;;;;;;11.98;6.35;;;;;;;16.76;100.00;101806.88;6230640;28;20041;-96
2023/05/25 11:19:53;;;;;;;11.63;5.47;;;;;;;16.68;100.00;101807.53;6244331;28;20048;-96
2023/05/25 11:23:27;;;;;;;9.68;5.75;;;;;;;16.78;100.00;101813.66;6242851;28;20057;-95
2023/05/25 11:26:36;;;;;;;8.15;5.07;;;;;;;16.91;100.00;101817.84;6238924;28;20048;-96
2023/05/25 11:30:06;;;;;;;11.80;5.30;;;;;;;17.05;100.00;101800.97;6238972;28;20049;-96
2023/05/25 11:33:36;;;;;;;7.88;4.63;;;;;;;17.41;100.00;101794.31;6227385;28;20131;-96
2023/05/25 11:36:44;;;;;;;8.35;4.50;;;;;;;17.78;100.00;101798.91;6258143;28;20061;-96
2023/05/25 11:40:17;;;;;;;8.00;4.53;;;;;;;17.58;100.00;101792.84;6220787;28;20045;-96
2023/05/25 11:43:28;;;;;;;9.70;4.97;;;;;;;17.35;100.00;101793.06;6233192;28;20061;-96
2023/05/25 11:46:42;;;;;;;6.63;4.63;;;;;;;17.36;100.00;101797.34;6227756;28;20037;-96
2023/05/25 11:50:21;;;;;;;11.18;4.60;;;;;;;17.28;100.00;101786.72;6229535;28;20061;-96
2023/05/25 11:53:43;;;;;;;8.98;4.50;;;;;;;17.53;100.00;101792.41;6253257;28;20041;-96
2023/05/25 11:56:55;;;;;;;7.82;5.53;;;;;;;17.81;100.00;101791.66;6226699;28;20144;-96
2023/05/25 12:00:34;;;;;;;8.57;4.65;;;;;;;18.03;100.00;101792.34;6242212;28;20089;-96
2023/05/25 12:03:46;;;;;;;5.68;3.40;;;;;;;17.94;100.00;101794.00;6229686;28;20033;-94
2023/05/25 12:06:48;;;;;;;5.63;3.60;;;;;;;18.12;100.00;101791.50;6234871;28;20061;-93
2023/05/25 12:09:51;;;;;;;6.47;4.05;;;;;;;18.20;100.00;101789.00;6247778;28;20040;-94
2023/05/25 12:12:57;;;;;;;7.15;3.67;;;;;;;18.22;100.00;101794.13;6234350;28;20033;-95
2023/05/25 12:15:59;;;;;;;7.05;3.47;;;;;;;18.42;100.00;101785.25;6237615;28;20582;-95
2023/05/25 12:19:02;;;;;;;7.30;3.33;;;;;;;18.64;100.00;101789.34;6236539;28;20167;-95
2023/05/25 12:22:05;;;;;;;6.43;3.20;;;;;;;18.51;100.00;101789.66;6236118;28;20037;-94
2023/05/25 12:25:10;;;;;;;7.88;3.70;;;;;;;18.31;100.00;101774.94;6239161;28;20041;-95
2023/05/25 12:28:16;;;;;;;9.20;4.15;;;;;;;18.26;100.00;101771.88;6236986;28;20494;-96
2023/05/25 12:31:24;;;;;;;6.57;3.80;;;;;;;18.16;100.00;101760.59;6219738;28;20396;-96
2023/05/25 12:34:33;;;;;;;5.80;3.70;;;;;;;17.90;100.00;101755.94;6235580;28;20520;-95
2023/05/25 12:37:36;;;;;;;5.35;3.50;;;;;;;17.26;100.00;101761.66;6237196;28;20053;-96
2023/05/25 12:40:39;;;;;;;11.75;4.03;;;;;;;17.38;100.00;101755.34;6227410;28;20042;-95
2023/05/25 12:43:43;;;;;;;8.95;3.88;;;;;;;18.03;100.00;101753.03;6237877;28;20037;-96
2023/05/25 12:46:48;;;;;;;7.25;3.50;;;;;;;18.99;100.00;101748.47;6227190;28;20049;-96
2023/05/25 12:50:08;;;;;;;8.88;4.05;;;;;;;19.87;100.00;101756.59;6233503;28;20626;-96
2023/05/25 12:53:12;;;;;;;5.03;3.67;;;;;;;20.25;100.00;101757.22;6235326;28;20447;-96
2023/05/25 12:56:25;;;;;;;7.00;3.80;;;;;;;20.24;100.00;101752.91;6221780;28;20048;-96
2023/05/25 12:59:30;;;;;;;4.60;3.17;;;;;;;20.17;100.00;101757.13;6244938;28;20044;-96
2023/05/25 13:02:33;;;;;;;7.03;3.55;;;;;;;20.05;100.00;101753.09;6224631;28;20412;-95
2023/05/25 13:05:40;;;;;;;8.10;3.55;;;;;;;19.74;100.00;101762.22;6235131;28;20656;-96
2023/05/25 13:08:43;;;;;;;6.55;3.60;;;;;;;19.17;100.00;101739.81;6217902;28;20513;-96
2023/05/25 13:11:45;;;;;;;6.28;3.15;;;;;;;18.70;100.00;101746.78;6241682;28;20037;-96
2023/05/25 13:14:47;;;;;;;7.30;3.45;;;;;;;18.41;100.00;101744.28;6235066;28;20042;-93
2023/05/25 13:18:04;;;;;;;6.25;3.53;;;;;;;18.44;100.00;101743.97;6234205;28;20076;-96
2023/05/25 13:21:08;;;;;;;6.50;3.60;;;;;;;18.49;100.00;101740.94;6223396;28;20061;-96
2023/05/25 13:24:24;;;;;;;9.77;3.95;;;;;;;18.50;100.00;101734.72;6242742;28;20069;-96
2023/05/25 13:27:27;;;;;;;7.78;3.55;;;;;;;18.25;100.00;101731.75;6221894;28;20052;-95
2023/05/25 13:30:30;;;;;;;6.90;3.97;;;;;;;18.67;100.00;101735.75;6234656;28;20073;-96
2023/05/25 13:33:33;;;;;;;8.43;3.50;;;;;;;19.76;100.00;101726.13;6238379;28;20685;-96
2023/05/25 13:36:38;;;;;;;7.97;4.10;;;;;;;20.31;100.00;101735.53;6239813;28;20041;-96
2023/05/25 13:39:40;;;;;;;6.68;3.05;;;;;;;20.45;100.00;101742.03;6236839;28;20042;-93
2023/05/25 13:42:48;;;;;;;5.43;3.28;;;;;;;20.19;100.00;101728.88;6232988;28;20540;-96
2023/05/25 13:45:51;;;;;;;9.18;3.70;;;;;;;20.07;100.00;101730.94;6249181;28;20391;-95
2023/05/25 13:48:53;;;;;;;7.80;3.70;;;;;;;19.88;100.00;101731.16;6243385;28;20037;-95
2023/05/25 13:51:59;;;;;;;5.20;3.08;;;;;;;19.91;100.00;101723.78;6240106;28;20455;-95
2023/05/25 13:55:06;;;;;;;9.43;4.18;;;;;;;20.12;100.00;101722.59;6235091;28;20037;-95
2023/05/25 13:58:09;;;;;;;8.32;3.67;;;;;;;19.75;100.00;101718.38;6239710;28;20045;-96
2023/05/25 14:01:13;;;;;;;17.98;4.07;;;;;;;19.44;100.00;101708.25;6248490;28;20063;-96
2023/05/25 14:04:18;;;;;;;7.50;3.45;;;;;;;19.77;100.00;101712.00;6237654;28;20049;-96